sensor_id;sensor_type;location;lat;lon;timestamp;P1;durP1;ratioP1;P2;durP2;ratioP2
59127;SDS011;44912;52.754;5.994;2023-07-29T00:00:58;11.13;;;6.55;;
59127;SDS011;44912;52.754;5.994;2023-07-29T00:03:25;9.90;;;6.70;;
59127;SDS011;44912;52.754;5.994;2023-07-29T00:05:50;9.45;;;6.53;;
59127;SDS011;44912;52.754;5.994;2023-07-29T00:08:16;10.02;;;7.03;;
59127;SDS011;44912;52.754;5.994;2023-07-29T00:10:44;10.93;;;6.60;;
59127;SDS011;44912;52.754;5.994;2023-07-29T00:13:09;9.95;;;6.88;;
59127;SDS011;44912;52.754;5.994;2023-07-29T00:15:35;10.13;;;6.68;;
59127;SDS011;44912;52.754;5.994;2023-07-29T00:18:00;8.95;;;6.38;;
59127;SDS011;44912;52.754;5.994;2023-07-29T00:20:26;11.40;;;6.95;;
59127;SDS011;44912;52.754;5.994;2023-07-29T00:22:51;10.00;;;6.63;;
59127;SDS011;44912;52.754;5.994;2023-07-29T00:25:20;9.77;;;6.78;;
59127;SDS011;44912;52.754;5.994;2023-07-29T00:27:46;11.05;;;6.68;;
59127;SDS011;44912;52.754;5.994;2023-07-29T00:30:12;11.85;;;6.60;;
59127;SDS011;44912;52.754;5.994;2023-07-29T00:32:38;9.77;;;6.68;;
59127;SDS011;44912;52.754;5.994;2023-07-29T00:35:03;9.85;;;6.60;;
59127;SDS011;44912;52.754;5.994;2023-07-29T00:37:29;9.60;;;6.03;;
59127;SDS011;44912;52.754;5.994;2023-07-29T00:39:55;11.90;;;6.18;;
59127;SDS011;44912;52.754;5.994;2023-07-29T00:42:21;10.40;;;5.78;;
59127;SDS011;44912;52.754;5.994;2023-07-29T00:44:47;10.68;;;5.78;;
59127;SDS011;44912;52.754;5.994;2023-07-29T00:47:12;11.02;;;6.40;;
59127;SDS011;44912;52.754;5.994;2023-07-29T00:49:40;9.40;;;5.88;;
59127;SDS011;44912;52.754;5.994;2023-07-29T00:52:06;8.43;;;5.97;;
59127;SDS011;44912;52.754;5.994;2023-07-29T00:54:31;9.18;;;5.60;;
59127;SDS011;44912;52.754;5.994;2023-07-29T00:56:57;9.48;;;5.97;;
59127;SDS011;44912;52.754;5.994;2023-07-29T00:59:23;9.02;;;5.47;;
59127;SDS011;44912;52.754;5.994;2023-07-29T01:01:48;10.25;;;5.72;;
59127;SDS011;44912;52.754;5.994;2023-07-29T01:04:14;8.07;;;5.40;;
59127;SDS011;44912;52.754;5.994;2023-07-29T01:15:38;9.52;;;5.90;;
59127;SDS011;44912;52.754;5.994;2023-07-29T01:18:24;9.98;;;5.88;;
59127;SDS011;44912;52.754;5.994;2023-07-29T01:20:54;8.73;;;5.25;;
59127;SDS011;44912;52.754;5.994;2023-07-29T01:23:23;9.98;;;5.80;;
59127;SDS011;44912;52.754;5.994;2023-07-29T01:25:49;12.40;;;5.32;;
59127;SDS011;44912;52.754;5.994;2023-07-29T01:28:15;8.48;;;5.13;;
59127;SDS011;44912;52.754;5.994;2023-07-29T01:30:40;9.85;;;5.38;;
59127;SDS011;44912;52.754;5.994;2023-07-29T01:33:14;8.80;;;5.70;;
59127;SDS011;44912;52.754;5.994;2023-07-29T01:36:01;9.52;;;5.45;;
59127;SDS011;44912;52.754;5.994;2023-07-29T01:38:33;9.25;;;5.38;;
59127;SDS011;44912;52.754;5.994;2023-07-29T01:41:03;11.05;;;6.00;;
59127;SDS011;44912;52.754;5.994;2023-07-29T01:43:31;8.15;;;5.05;;
59127;SDS011;44912;52.754;5.994;2023-07-29T01:45:57;9.02;;;5.10;;
59127;SDS011;44912;52.754;5.994;2023-07-29T01:48:23;9.27;;;4.90;;
59127;SDS011;44912;52.754;5.994;2023-07-29T01:50:49;8.20;;;4.68;;
59127;SDS011;44912;52.754;5.994;2023-07-29T01:53:15;7.63;;;4.25;;
59127;SDS011;44912;52.754;5.994;2023-07-29T01:55:41;8.05;;;4.25;;
59127;SDS011;44912;52.754;5.994;2023-07-29T01:58:07;8.15;;;4.00;;
59127;SDS011;44912;52.754;5.994;2023-07-29T02:00:32;9.23;;;3.90;;
59127;SDS011;44912;52.754;5.994;2023-07-29T02:02:58;8.20;;;3.83;;
59127;SDS011;44912;52.754;5.994;2023-07-29T02:05:23;7.78;;;3.92;;
59127;SDS011;44912;52.754;5.994;2023-07-29T02:07:49;7.57;;;3.53;;
59127;SDS011;44912;52.754;5.994;2023-07-29T02:10:15;7.13;;;3.88;;
59127;SDS011;44912;52.754;5.994;2023-07-29T02:12:40;7.22;;;3.70;;
59127;SDS011;44912;52.754;5.994;2023-07-29T02:15:06;7.00;;;4.00;;
59127;SDS011;44912;52.754;5.994;2023-07-29T02:17:32;7.28;;;3.60;;
59127;SDS011;44912;52.754;5.994;2023-07-29T02:19:58;9.57;;;3.92;;
59127;SDS011;44912;52.754;5.994;2023-07-29T02:22:23;9.15;;;3.60;;
59127;SDS011;44912;52.754;5.994;2023-07-29T02:24:49;8.48;;;4.25;;
59127;SDS011;44912;52.754;5.994;2023-07-29T02:27:14;7.75;;;3.90;;
59127;SDS011;44912;52.754;5.994;2023-07-29T02:29:40;8.70;;;4.10;;
59127;SDS011;44912;52.754;5.994;2023-07-29T02:32:05;7.13;;;3.67;;
59127;SDS011;44912;52.754;5.994;2023-07-29T02:34:31;8.98;;;3.63;;
59127;SDS011;44912;52.754;5.994;2023-07-29T02:36:56;7.22;;;3.53;;
59127;SDS011;44912;52.754;5.994;2023-07-29T02:39:22;6.78;;;3.53;;
59127;SDS011;44912;52.754;5.994;2023-07-29T02:41:48;8.07;;;3.40;;
59127;SDS011;44912;52.754;5.994;2023-07-29T02:44:15;7.30;;;3.47;;
59127;SDS011;44912;52.754;5.994;2023-07-29T02:46:40;8.00;;;3.50;;
59127;SDS011;44912;52.754;5.994;2023-07-29T02:49:06;6.40;;;2.85;;
59127;SDS011;44912;52.754;5.994;2023-07-29T02:51:31;8.38;;;3.60;;
59127;SDS011;44912;52.754;5.994;2023-07-29T02:53:57;7.82;;;3.05;;
59127;SDS011;44912;52.754;5.994;2023-07-29T02:56:23;6.90;;;2.90;;
59127;SDS011;44912;52.754;5.994;2023-07-29T02:58:48;5.40;;;2.85;;
59127;SDS011;44912;52.754;5.994;2023-07-29T03:01:16;7.82;;;3.20;;
59127;SDS011;44912;52.754;5.994;2023-07-29T03:03:42;5.97;;;2.95;;
59127;SDS011;44912;52.754;5.994;2023-07-29T03:06:08;7.18;;;2.80;;
59127;SDS011;44912;52.754;5.994;2023-07-29T03:08:35;5.03;;;2.58;;
59127;SDS011;44912;52.754;5.994;2023-07-29T03:17:14;5.82;;;2.40;;
59127;SDS011;44912;52.754;5.994;2023-07-29T03:43:30;5.88;;;2.45;;
59127;SDS011;44912;52.754;5.994;2023-07-29T03:45:56;5.70;;;2.28;;
59127;SDS011;44912;52.754;5.994;2023-07-29T03:48:22;5.22;;;2.03;;
59127;SDS011;44912;52.754;5.994;2023-07-29T03:50:47;5.80;;;2.10;;
59127;SDS011;44912;52.754;5.994;2023-07-29T03:53:13;7.53;;;2.00;;
59127;SDS011;44912;52.754;5.994;2023-07-29T03:55:38;5.53;;;2.08;;
59127;SDS011;44912;52.754;5.994;2023-07-29T03:58:04;4.53;;;2.15;;
59127;SDS011;44912;52.754;5.994;2023-07-29T04:00:29;5.85;;;2.10;;
59127;SDS011;44912;52.754;5.994;2023-07-29T04:02:55;4.78;;;1.90;;
59127;SDS011;44912;52.754;5.994;2023-07-29T04:05:20;5.32;;;2.22;;
59127;SDS011;44912;52.754;5.994;2023-07-29T04:07:46;6.20;;;2.20;;
59127;SDS011;44912;52.754;5.994;2023-07-29T04:10:11;4.30;;;1.85;;
59127;SDS011;44912;52.754;5.994;2023-07-29T04:12:37;7.00;;;2.20;;
59127;SDS011;44912;52.754;5.994;2023-07-29T04:15:03;6.78;;;1.90;;
59127;SDS011;44912;52.754;5.994;2023-07-29T04:17:29;5.97;;;2.03;;
59127;SDS011;44912;52.754;5.994;2023-07-29T04:19:54;6.82;;;2.08;;
59127;SDS011;44912;52.754;5.994;2023-07-29T04:22:20;5.93;;;2.17;;
59127;SDS011;44912;52.754;5.994;2023-07-29T04:24:46;6.07;;;2.00;;
59127;SDS011;44912;52.754;5.994;2023-07-29T04:27:11;7.20;;;2.05;;
59127;SDS011;44912;52.754;5.994;2023-07-29T04:29:37;6.38;;;2.28;;
59127;SDS011;44912;52.754;5.994;2023-07-29T04:32:03;5.97;;;2.15;;
59127;SDS011;44912;52.754;5.994;2023-07-29T04:34:29;4.85;;;1.60;;
59127;SDS011;44912;52.754;5.994;2023-07-29T04:36:54;5.22;;;2.10;;
59127;SDS011;44912;52.754;5.994;2023-07-29T04:39:20;7.28;;;2.25;;
59127;SDS011;44912;52.754;5.994;2023-07-29T04:41:45;5.28;;;1.90;;
59127;SDS011;44912;52.754;5.994;2023-07-29T04:44:11;4.78;;;1.88;;
59127;SDS011;44912;52.754;5.994;2023-07-29T04:46:36;5.63;;;2.00;;
59127;SDS011;44912;52.754;5.994;2023-07-29T04:49:03;6.95;;;2.20;;
59127;SDS011;44912;52.754;5.994;2023-07-29T04:51:29;5.95;;;2.30;;
59127;SDS011;44912;52.754;5.994;2023-07-29T04:53:55;6.35;;;2.65;;
59127;SDS011;44912;52.754;5.994;2023-07-29T04:56:20;6.40;;;2.50;;
59127;SDS011;44912;52.754;5.994;2023-07-29T04:58:46;4.57;;;1.95;;
59127;SDS011;44912;52.754;5.994;2023-07-29T05:01:11;6.78;;;2.63;;
59127;SDS011;44912;52.754;5.994;2023-07-29T05:03:37;6.35;;;2.40;;
59127;SDS011;44912;52.754;5.994;2023-07-29T05:06:04;6.22;;;2.70;;
59127;SDS011;44912;52.754;5.994;2023-07-29T05:08:30;8.05;;;2.70;;
59127;SDS011;44912;52.754;5.994;2023-07-29T05:10:55;5.57;;;2.58;;
59127;SDS011;44912;52.754;5.994;2023-07-29T05:13:22;7.45;;;2.90;;
59127;SDS011;44912;52.754;5.994;2023-07-29T05:15:48;7.60;;;2.70;;
59127;SDS011;44912;52.754;5.994;2023-07-29T05:18:15;6.07;;;3.00;;
59127;SDS011;44912;52.754;5.994;2023-07-29T05:20:41;8.57;;;3.35;;
59127;SDS011;44912;52.754;5.994;2023-07-29T05:23:06;7.38;;;3.00;;
59127;SDS011;44912;52.754;5.994;2023-07-29T05:25:32;9.23;;;3.20;;
59127;SDS011;44912;52.754;5.994;2023-07-29T05:27:59;8.90;;;3.38;;
59127;SDS011;44912;52.754;5.994;2023-07-29T05:30:25;9.18;;;3.30;;
59127;SDS011;44912;52.754;5.994;2023-07-29T05:32:55;7.60;;;3.50;;
59127;SDS011;44912;52.754;5.994;2023-07-29T05:35:20;9.13;;;3.67;;
59127;SDS011;44912;52.754;5.994;2023-07-29T05:37:46;11.23;;;3.90;;
59127;SDS011;44912;52.754;5.994;2023-07-29T05:40:11;7.95;;;3.47;;
59127;SDS011;44912;52.754;5.994;2023-07-29T05:42:37;8.52;;;3.70;;
59127;SDS011;44912;52.754;5.994;2023-07-29T05:45:03;12.50;;;3.83;;
59127;SDS011;44912;52.754;5.994;2023-07-29T05:47:28;8.15;;;3.58;;
59127;SDS011;44912;52.754;5.994;2023-07-29T05:49:54;9.43;;;3.60;;
59127;SDS011;44912;52.754;5.994;2023-07-29T05:52:19;8.55;;;3.60;;
59127;SDS011;44912;52.754;5.994;2023-07-29T05:54:45;8.10;;;3.65;;
59127;SDS011;44912;52.754;5.994;2023-07-29T05:57:13;11.30;;;3.35;;
59127;SDS011;44912;52.754;5.994;2023-07-29T05:59:38;9.55;;;3.85;;
59127;SDS011;44912;52.754;5.994;2023-07-29T06:02:04;10.32;;;4.00;;
59127;SDS011;44912;52.754;5.994;2023-07-29T06:04:30;11.90;;;4.90;;
59127;SDS011;44912;52.754;5.994;2023-07-29T06:06:56;9.43;;;3.70;;
59127;SDS011;44912;52.754;5.994;2023-07-29T06:09:22;9.45;;;4.13;;
59127;SDS011;44912;52.754;5.994;2023-07-29T06:11:48;12.23;;;3.90;;
59127;SDS011;44912;52.754;5.994;2023-07-29T06:14:14;10.35;;;3.63;;
59127;SDS011;44912;52.754;5.994;2023-07-29T06:16:40;10.23;;;4.18;;
59127;SDS011;44912;52.754;5.994;2023-07-29T06:19:05;10.30;;;3.85;;
59127;SDS011;44912;52.754;5.994;2023-07-29T06:21:36;11.20;;;4.38;;
59127;SDS011;44912;52.754;5.994;2023-07-29T06:24:04;9.10;;;3.20;;
59127;SDS011;44912;52.754;5.994;2023-07-29T06:26:32;9.35;;;4.03;;
59127;SDS011;44912;52.754;5.994;2023-07-29T06:29:01;11.50;;;4.05;;
59127;SDS011;44912;52.754;5.994;2023-07-29T06:33:57;12.10;;;4.28;;
59127;SDS011;44912;52.754;5.994;2023-07-29T06:36:33;9.63;;;3.85;;
59127;SDS011;44912;52.754;5.994;2023-07-29T06:38:58;12.43;;;4.22;;
59127;SDS011;44912;52.754;5.994;2023-07-29T06:41:24;10.10;;;3.88;;
59127;SDS011;44912;52.754;5.994;2023-07-29T06:43:50;11.00;;;4.05;;
59127;SDS011;44912;52.754;5.994;2023-07-29T06:46:15;9.00;;;3.65;;
59127;SDS011;44912;52.754;5.994;2023-07-29T06:48:41;10.30;;;3.85;;
59127;SDS011;44912;52.754;5.994;2023-07-29T06:51:06;9.38;;;4.20;;
59127;SDS011;44912;52.754;5.994;2023-07-29T06:53:32;8.48;;;4.13;;
59127;SDS011;44912;52.754;5.994;2023-07-29T06:55:57;10.35;;;4.47;;
59127;SDS011;44912;52.754;5.994;2023-07-29T06:58:23;9.75;;;3.95;;
59127;SDS011;44912;52.754;5.994;2023-07-29T07:00:48;8.95;;;4.15;;
59127;SDS011;44912;52.754;5.994;2023-07-29T07:03:14;10.50;;;4.22;;
59127;SDS011;44912;52.754;5.994;2023-07-29T07:05:39;10.82;;;4.05;;
59127;SDS011;44912;52.754;5.994;2023-07-29T07:08:05;12.52;;;4.47;;
59127;SDS011;44912;52.754;5.994;2023-07-29T07:10:30;8.85;;;4.20;;
59127;SDS011;44912;52.754;5.994;2023-07-29T07:12:56;9.65;;;4.30;;
59127;SDS011;44912;52.754;5.994;2023-07-29T07:15:22;15.18;;;4.68;;
59127;SDS011;44912;52.754;5.994;2023-07-29T07:17:47;13.85;;;4.50;;
59127;SDS011;44912;52.754;5.994;2023-07-29T07:20:13;8.10;;;3.75;;
59127;SDS011;44912;52.754;5.994;2023-07-29T07:22:39;11.98;;;4.03;;
59127;SDS011;44912;52.754;5.994;2023-07-29T07:25:04;8.10;;;3.85;;
59127;SDS011;44912;52.754;5.994;2023-07-29T07:27:30;10.07;;;4.10;;
59127;SDS011;44912;52.754;5.994;2023-07-29T07:29:59;10.15;;;3.55;;
59127;SDS011;44912;52.754;5.994;2023-07-29T07:32:25;8.43;;;4.07;;
59127;SDS011;44912;52.754;5.994;2023-07-29T07:34:51;9.05;;;4.00;;
59127;SDS011;44912;52.754;5.994;2023-07-29T07:37:16;9.15;;;4.07;;
59127;SDS011;44912;52.754;5.994;2023-07-29T07:39:42;8.88;;;3.72;;
59127;SDS011;44912;52.754;5.994;2023-07-29T07:42:08;9.50;;;3.95;;
59127;SDS011;44912;52.754;5.994;2023-07-29T07:44:33;8.68;;;3.63;;
59127;SDS011;44912;52.754;5.994;2023-07-29T07:46:59;9.85;;;3.85;;
59127;SDS011;44912;52.754;5.994;2023-07-29T07:49:24;11.68;;;4.10;;
59127;SDS011;44912;52.754;5.994;2023-07-29T07:51:50;8.15;;;3.75;;
59127;SDS011;44912;52.754;5.994;2023-07-29T07:54:15;9.77;;;4.28;;
59127;SDS011;44912;52.754;5.994;2023-07-29T07:56:41;10.88;;;3.72;;
59127;SDS011;44912;52.754;5.994;2023-07-29T07:59:07;10.07;;;3.83;;
59127;SDS011;44912;52.754;5.994;2023-07-29T08:01:34;9.00;;;3.75;;
59127;SDS011;44912;52.754;5.994;2023-07-29T08:04:03;10.63;;;3.60;;
59127;SDS011;44912;52.754;5.994;2023-07-29T08:06:28;8.10;;;3.20;;
59127;SDS011;44912;52.754;5.994;2023-07-29T08:08:55;10.65;;;4.25;;
59127;SDS011;44912;52.754;5.994;2023-07-29T08:11:21;8.68;;;3.38;;
59127;SDS011;44912;52.754;5.994;2023-07-29T08:13:46;10.82;;;3.08;;
59127;SDS011;44912;52.754;5.994;2023-07-29T08:16:12;10.73;;;3.17;;
59127;SDS011;44912;52.754;5.994;2023-07-29T08:18:38;8.57;;;2.40;;
59127;SDS011;44912;52.754;5.994;2023-07-29T08:21:03;9.15;;;2.50;;
59127;SDS011;44912;52.754;5.994;2023-07-29T08:23:30;7.32;;;2.40;;
59127;SDS011;44912;52.754;5.994;2023-07-29T08:25:58;9.52;;;2.85;;
59127;SDS011;44912;52.754;5.994;2023-07-29T08:28:32;6.85;;;2.08;;
59127;SDS011;44912;52.754;5.994;2023-07-29T08:31:01;7.53;;;2.50;;
59127;SDS011;44912;52.754;5.994;2023-07-29T08:33:28;8.65;;;2.83;;
59127;SDS011;44912;52.754;5.994;2023-07-29T08:35:54;4.22;;;1.70;;
59127;SDS011;44912;52.754;5.994;2023-07-29T08:38:20;7.07;;;2.00;;
59127;SDS011;44912;52.754;5.994;2023-07-29T08:40:50;7.82;;;2.08;;
59127;SDS011;44912;52.754;5.994;2023-07-29T08:43:22;4.10;;;1.92;;
59127;SDS011;44912;52.754;5.994;2023-07-29T08:45:55;5.40;;;2.42;;
59127;SDS011;44912;52.754;5.994;2023-07-29T08:48:23;5.82;;;1.90;;
59127;SDS011;44912;52.754;5.994;2023-07-29T08:51:01;8.63;;;2.35;;
59127;SDS011;44912;52.754;5.994;2023-07-29T08:53:28;7.72;;;2.45;;
59127;SDS011;44912;52.754;5.994;2023-07-29T08:55:54;9.43;;;2.78;;
59127;SDS011;44912;52.754;5.994;2023-07-29T08:58:20;7.88;;;2.58;;
59127;SDS011;44912;52.754;5.994;2023-07-29T09:00:47;4.85;;;1.65;;
59127;SDS011;44912;52.754;5.994;2023-07-29T09:03:14;4.20;;;1.65;;
59127;SDS011;44912;52.754;5.994;2023-07-29T09:05:40;5.55;;;1.70;;
59127;SDS011;44912;52.754;5.994;2023-07-29T09:08:05;6.22;;;1.83;;
59127;SDS011;44912;52.754;5.994;2023-07-29T09:10:35;4.68;;;1.77;;
59127;SDS011;44912;52.754;5.994;2023-07-29T09:13:02;8.00;;;2.28;;
59127;SDS011;44912;52.754;5.994;2023-07-29T09:15:32;6.30;;;2.10;;
59127;SDS011;44912;52.754;5.994;2023-07-29T09:17:59;5.95;;;2.10;;
59127;SDS011;44912;52.754;5.994;2023-07-29T09:20:34;6.07;;;2.15;;
59127;SDS011;44912;52.754;5.994;2023-07-29T09:23:00;7.72;;;1.98;;
59127;SDS011;44912;52.754;5.994;2023-07-29T09:25:26;6.57;;;2.05;;
59127;SDS011;44912;52.754;5.994;2023-07-29T09:28:07;5.68;;;2.25;;
59127;SDS011;44912;52.754;5.994;2023-07-29T09:30:34;7.60;;;2.47;;
59127;SDS011;44912;52.754;5.994;2023-07-29T09:33:00;5.68;;;2.55;;
59127;SDS011;44912;52.754;5.994;2023-07-29T09:35:27;6.80;;;2.55;;
59127;SDS011;44912;52.754;5.994;2023-07-29T09:37:53;6.28;;;2.30;;
59127;SDS011;44912;52.754;5.994;2023-07-29T09:40:19;6.15;;;2.53;;
59127;SDS011;44912;52.754;5.994;2023-07-29T09:42:49;4.75;;;2.35;;
59127;SDS011;44912;52.754;5.994;2023-07-29T09:45:22;7.35;;;2.05;;
59127;SDS011;44912;52.754;5.994;2023-07-29T09:47:49;6.88;;;2.15;;
59127;SDS011;44912;52.754;5.994;2023-07-29T09:50:15;7.78;;;2.33;;
59127;SDS011;44912;52.754;5.994;2023-07-29T09:52:41;8.35;;;3.25;;
59127;SDS011;44912;52.754;5.994;2023-07-29T09:55:07;7.05;;;2.00;;
59127;SDS011;44912;52.754;5.994;2023-07-29T09:57:34;11.07;;;2.30;;
59127;SDS011;44912;52.754;5.994;2023-07-29T10:00:01;4.53;;;1.40;;
59127;SDS011;44912;52.754;5.994;2023-07-29T10:02:30;7.03;;;2.40;;
59127;SDS011;44912;52.754;5.994;2023-07-29T10:04:56;8.10;;;2.75;;
59127;SDS011;44912;52.754;5.994;2023-07-29T10:07:22;8.45;;;3.20;;
59127;SDS011;44912;52.754;5.994;2023-07-29T10:09:49;6.85;;;3.25;;
59127;SDS011;44912;52.754;5.994;2023-07-29T10:12:17;6.30;;;2.92;;
59127;SDS011;44912;52.754;5.994;2023-07-29T10:14:44;7.60;;;3.67;;
59127;SDS011;44912;52.754;5.994;2023-07-29T10:17:12;7.03;;;2.55;;
59127;SDS011;44912;52.754;5.994;2023-07-29T10:19:40;6.35;;;2.50;;
59127;SDS011;44912;52.754;5.994;2023-07-29T10:22:07;6.10;;;2.70;;
59127;SDS011;44912;52.754;5.994;2023-07-29T10:24:35;6.50;;;2.97;;
59127;SDS011;44912;52.754;5.994;2023-07-29T10:27:04;8.95;;;3.20;;
59127;SDS011;44912;52.754;5.994;2023-07-29T10:29:31;10.07;;;3.10;;
59127;SDS011;44912;52.754;5.994;2023-07-29T10:32:01;7.85;;;3.50;;
59127;SDS011;44912;52.754;5.994;2023-07-29T10:34:29;10.48;;;4.00;;
59127;SDS011;44912;52.754;5.994;2023-07-29T10:36:56;10.30;;;4.40;;
59127;SDS011;44912;52.754;5.994;2023-07-29T10:39:23;7.85;;;3.20;;
59127;SDS011;44912;52.754;5.994;2023-07-29T10:47:20;8.57;;;3.60;;
59127;SDS011;44912;52.754;5.994;2023-07-29T10:49:52;6.95;;;2.60;;
59127;SDS011;44912;52.754;5.994;2023-07-29T10:55:01;8.57;;;2.72;;
59127;SDS011;44912;52.754;5.994;2023-07-29T10:57:32;7.65;;;3.00;;
59127;SDS011;44912;52.754;5.994;2023-07-29T10:59:59;7.60;;;3.42;;
59127;SDS011;44912;52.754;5.994;2023-07-29T11:02:32;7.30;;;2.90;;
59127;SDS011;44912;52.754;5.994;2023-07-29T11:05:00;10.10;;;2.95;;
59127;SDS011;44912;52.754;5.994;2023-07-29T11:07:31;17.05;;;4.05;;
59127;SDS011;44912;52.754;5.994;2023-07-29T11:10:12;7.85;;;3.00;;
59127;SDS011;44912;52.754;5.994;2023-07-29T11:17:46;10.95;;;3.60;;
59127;SDS011;44912;52.754;5.994;2023-07-29T11:20:16;7.10;;;3.40;;
59127;SDS011;44912;52.754;5.994;2023-07-29T11:22:43;9.70;;;3.60;;
59127;SDS011;44912;52.754;5.994;2023-07-29T11:25:10;7.95;;;3.40;;
59127;SDS011;44912;52.754;5.994;2023-07-29T11:27:38;5.88;;;3.00;;
59127;SDS011;44912;52.754;5.994;2023-07-29T11:30:04;8.00;;;3.28;;
59127;SDS011;44912;52.754;5.994;2023-07-29T11:32:32;8.00;;;3.05;;
59127;SDS011;44912;52.754;5.994;2023-07-29T11:37:53;8.77;;;2.75;;
59127;SDS011;44912;52.754;5.994;2023-07-29T11:40:22;7.82;;;3.03;;
59127;SDS011;44912;52.754;5.994;2023-07-29T11:42:49;9.35;;;3.30;;
59127;SDS011;44912;52.754;5.994;2023-07-29T11:45:16;8.40;;;2.97;;
59127;SDS011;44912;52.754;5.994;2023-07-29T11:47:43;9.93;;;3.13;;
59127;SDS011;44912;52.754;5.994;2023-07-29T11:50:09;6.13;;;2.30;;
59127;SDS011;44912;52.754;5.994;2023-07-29T11:52:36;7.28;;;2.78;;
59127;SDS011;44912;52.754;5.994;2023-07-29T11:55:04;8.05;;;2.72;;
59127;SDS011;44912;52.754;5.994;2023-07-29T11:57:30;8.70;;;2.72;;
59127;SDS011;44912;52.754;5.994;2023-07-29T11:59:58;6.72;;;2.65;;
59127;SDS011;44912;52.754;5.994;2023-07-29T12:02:24;8.23;;;2.17;;
59127;SDS011;44912;52.754;5.994;2023-07-29T12:04:50;8.45;;;2.63;;
59127;SDS011;44912;52.754;5.994;2023-07-29T12:07:17;8.52;;;2.53;;
59127;SDS011;44912;52.754;5.994;2023-07-29T12:09:43;7.95;;;2.90;;
59127;SDS011;44912;52.754;5.994;2023-07-29T12:12:11;8.40;;;2.83;;
59127;SDS011;44912;52.754;5.994;2023-07-29T12:14:36;7.00;;;3.15;;
59127;SDS011;44912;52.754;5.994;2023-07-29T12:17:06;6.25;;;2.63;;
59127;SDS011;44912;52.754;5.994;2023-07-29T12:19:32;7.60;;;3.05;;
59127;SDS011;44912;52.754;5.994;2023-07-29T12:22:00;7.18;;;2.22;;
59127;SDS011;44912;52.754;5.994;2023-07-29T12:24:30;7.07;;;2.25;;
59127;SDS011;44912;52.754;5.994;2023-07-29T12:26:56;9.02;;;2.53;;
59127;SDS011;44912;52.754;5.994;2023-07-29T12:29:22;6.20;;;2.35;;
59127;SDS011;44912;52.754;5.994;2023-07-29T12:31:48;8.30;;;2.20;;
59127;SDS011;44912;52.754;5.994;2023-07-29T12:34:21;5.23;;;1.90;;
59127;SDS011;44912;52.754;5.994;2023-07-29T12:39:20;4.60;;;1.80;;
59127;SDS011;44912;52.754;5.994;2023-07-29T12:41:46;4.75;;;1.70;;
59127;SDS011;44912;52.754;5.994;2023-07-29T12:44:15;6.22;;;2.00;;
59127;SDS011;44912;52.754;5.994;2023-07-29T12:46:41;3.85;;;1.70;;
59127;SDS011;44912;52.754;5.994;2023-07-29T12:49:06;3.70;;;1.40;;
59127;SDS011;44912;52.754;5.994;2023-07-29T12:51:32;5.00;;;1.90;;
59127;SDS011;44912;52.754;5.994;2023-07-29T12:53:58;6.13;;;1.90;;
59127;SDS011;44912;52.754;5.994;2023-07-29T12:56:23;5.85;;;2.00;;
59127;SDS011;44912;52.754;5.994;2023-07-29T12:58:49;4.82;;;2.00;;
59127;SDS011;44912;52.754;5.994;2023-07-29T13:01:15;4.28;;;1.50;;
59127;SDS011;44912;52.754;5.994;2023-07-29T13:03:44;4.90;;;1.80;;
59127;SDS011;44912;52.754;5.994;2023-07-29T13:06:10;6.28;;;2.20;;
59127;SDS011;44912;52.754;5.994;2023-07-29T13:08:35;5.63;;;1.80;;
59127;SDS011;44912;52.754;5.994;2023-07-29T13:11:01;4.95;;;1.55;;
59127;SDS011;44912;52.754;5.994;2023-07-29T13:13:27;4.78;;;1.67;;
59127;SDS011;44912;52.754;5.994;2023-07-29T13:15:52;4.82;;;1.70;;
59127;SDS011;44912;52.754;5.994;2023-07-29T13:18:18;5.70;;;1.67;;
59127;SDS011;44912;52.754;5.994;2023-07-29T13:20:43;6.50;;;1.80;;
59127;SDS011;44912;52.754;5.994;2023-07-29T13:23:09;4.90;;;1.70;;
59127;SDS011;44912;52.754;5.994;2023-07-29T13:25:34;5.15;;;1.70;;
59127;SDS011;44912;52.754;5.994;2023-07-29T13:28:00;5.85;;;1.70;;
59127;SDS011;44912;52.754;5.994;2023-07-29T13:30:25;6.45;;;1.90;;
59127;SDS011;44912;52.754;5.994;2023-07-29T13:32:51;5.65;;;1.80;;
59127;SDS011;44912;52.754;5.994;2023-07-29T13:35:16;5.57;;;1.80;;
59127;SDS011;44912;52.754;5.994;2023-07-29T13:37:42;4.85;;;1.90;;
59127;SDS011;44912;52.754;5.994;2023-07-29T13:40:07;5.93;;;1.90;;
59127;SDS011;44912;52.754;5.994;2023-07-29T13:42:33;6.13;;;2.00;;
59127;SDS011;44912;52.754;5.994;2023-07-29T13:44:59;6.28;;;1.83;;
59127;SDS011;44912;52.754;5.994;2023-07-29T13:47:25;5.65;;;1.60;;
59127;SDS011;44912;52.754;5.994;2023-07-29T13:49:51;5.05;;;1.65;;
59127;SDS011;44912;52.754;5.994;2023-07-29T13:52:16;5.13;;;1.48;;
59127;SDS011;44912;52.754;5.994;2023-07-29T13:54:42;4.35;;;1.85;;
59127;SDS011;44912;52.754;5.994;2023-07-29T13:57:07;4.57;;;1.40;;
59127;SDS011;44912;52.754;5.994;2023-07-29T13:59:35;5.53;;;2.00;;
59127;SDS011;44912;52.754;5.994;2023-07-29T14:02:03;5.13;;;1.88;;
59127;SDS011;44912;52.754;5.994;2023-07-29T14:04:29;4.55;;;1.75;;
59127;SDS011;44912;52.754;5.994;2023-07-29T14:06:55;3.38;;;1.40;;
59127;SDS011;44912;52.754;5.994;2023-07-29T14:09:20;4.22;;;1.73;;
59127;SDS011;44912;52.754;5.994;2023-07-29T14:11:46;3.80;;;1.67;;
59127;SDS011;44912;52.754;5.994;2023-07-29T14:14:11;3.38;;;1.40;;
59127;SDS011;44912;52.754;5.994;2023-07-29T14:16:37;2.63;;;1.20;;
59127;SDS011;44912;52.754;5.994;2023-07-29T14:19:02;3.55;;;1.50;;
59127;SDS011;44912;52.754;5.994;2023-07-29T14:21:28;4.13;;;1.30;;
59127;SDS011;44912;52.754;5.994;2023-07-29T14:23:53;3.97;;;1.20;;
59127;SDS011;44912;52.754;5.994;2023-07-29T14:26:19;5.47;;;1.60;;
59127;SDS011;44912;52.754;5.994;2023-07-29T14:28:44;3.45;;;1.35;;
59127;SDS011;44912;52.754;5.994;2023-07-29T14:31:10;4.30;;;1.67;;
59127;SDS011;44912;52.754;5.994;2023-07-29T14:33:35;3.15;;;1.13;;
59127;SDS011;44912;52.754;5.994;2023-07-29T14:36:01;2.50;;;1.13;;
59127;SDS011;44912;52.754;5.994;2023-07-29T14:38:28;2.97;;;1.20;;
59127;SDS011;44912;52.754;5.994;2023-07-29T14:40:54;3.03;;;1.17;;
59127;SDS011;44912;52.754;5.994;2023-07-29T14:43:21;3.67;;;1.20;;
59127;SDS011;44912;52.754;5.994;2023-07-29T14:45:48;6.10;;;1.58;;
59127;SDS011;44912;52.754;5.994;2023-07-29T14:48:14;4.13;;;1.30;;
59127;SDS011;44912;52.754;5.994;2023-07-29T14:50:39;5.10;;;1.33;;
59127;SDS011;44912;52.754;5.994;2023-07-29T14:53:05;4.60;;;1.23;;
59127;SDS011;44912;52.754;5.994;2023-07-29T14:55:30;3.55;;;1.13;;
59127;SDS011;44912;52.754;5.994;2023-07-29T14:57:56;3.83;;;1.20;;
59127;SDS011;44912;52.754;5.994;2023-07-29T15:00:21;3.95;;;1.15;;
59127;SDS011;44912;52.754;5.994;2023-07-29T15:02:47;4.22;;;1.33;;
59127;SDS011;44912;52.754;5.994;2023-07-29T15:05:12;2.88;;;1.20;;
59127;SDS011;44912;52.754;5.994;2023-07-29T15:07:38;2.22;;;1.00;;
59127;SDS011;44912;52.754;5.994;2023-07-29T15:10:04;5.18;;;1.17;;
59127;SDS011;44912;52.754;5.994;2023-07-29T15:12:29;2.65;;;0.80;;
59127;SDS011;44912;52.754;5.994;2023-07-29T15:14:55;3.25;;;1.23;;
59127;SDS011;44912;52.754;5.994;2023-07-29T15:17:21;2.65;;;1.05;;
59127;SDS011;44912;52.754;5.994;2023-07-29T15:19:46;2.97;;;1.00;;
59127;SDS011;44912;52.754;5.994;2023-07-29T15:22:15;2.22;;;1.10;;
59127;SDS011;44912;52.754;5.994;2023-07-29T15:24:41;3.55;;;0.80;;
59127;SDS011;44912;52.754;5.994;2023-07-29T15:27:08;1.35;;;0.52;;
59127;SDS011;44912;52.754;5.994;2023-07-29T15:29:34;4.20;;;1.35;;
59127;SDS011;44912;52.754;5.994;2023-07-29T15:32:00;3.75;;;1.30;;
59127;SDS011;44912;52.754;5.994;2023-07-29T15:34:25;3.40;;;1.08;;
59127;SDS011;44912;52.754;5.994;2023-07-29T15:36:51;2.47;;;0.85;;
59127;SDS011;44912;52.754;5.994;2023-07-29T15:39:17;2.65;;;0.80;;
59127;SDS011;44912;52.754;5.994;2023-07-29T15:41:42;2.75;;;1.00;;